UKV1521 GFLL-DGTK
Flight info
| Callsign | UKV1521 |
|---|---|
| Flight time | N/A |
| Altitude | 35000 |
| Route | LGI UV207 AD/N0407F230 B600 TEMBI W7 TI |
| Aircraft | B738/M-SDE2E3FGIRWY/LB1 |
Departure
| Time | N/A |
|---|---|
| Airport | Lungi International Airport (GFLL) |
Arrival
| Time | 2026-04-24 20:27 |
|---|---|
| Airport | Takoradi Airport (DGTK) |
| Time | Latitude | Longitude | Altitude | Speed | Heading |
|---|---|---|---|---|---|
| 2026-04-24 18:54 | 7.78320 | -10.86237 | 34165 ft | 473 kts | 108° |
| 2026-04-24 18:55 | 7.76059 | -10.80028 | 34698 ft | 470 kts | 109° |
| 2026-04-24 18:55 | 7.74935 | -10.76941 | 34839 ft | 471 kts | 109° |
| 2026-04-24 18:56 | 7.72654 | -10.70681 | 34836 ft | 472 kts | 109° |
| 2026-04-24 18:56 | 7.70413 | -10.64535 | 34838 ft | 468 kts | 109° |
| 2026-04-24 18:57 | 7.68174 | -10.58395 | 34847 ft | 465 kts | 108° |
| 2026-04-24 18:57 | 7.65944 | -10.52283 | 34849 ft | 464 kts | 108° |
| 2026-04-24 18:58 | 7.63719 | -10.46190 | 34857 ft | 463 kts | 108° |
| 2026-04-24 18:58 | 7.61494 | -10.40094 | 34859 ft | 464 kts | 109° |
| 2026-04-24 18:59 | 7.59264 | -10.33988 | 34861 ft | 465 kts | 109° |
| 2026-04-24 18:59 | 7.57024 | -10.27858 | 34868 ft | 467 kts | 109° |
| 2026-04-24 19:00 | 7.54730 | -10.21729 | 34870 ft | 469 kts | 111° |
| 2026-04-24 19:00 | 7.52161 | -10.15674 | 34869 ft | 471 kts | 112° |
| 2026-04-24 19:01 | 7.49556 | -10.09614 | 34861 ft | 472 kts | 111° |
| 2026-04-24 19:01 | 7.46993 | -10.03535 | 34864 ft | 472 kts | 111° |
| 2026-04-24 19:02 | 7.44873 | -9.98472 | 34866 ft | 471 kts | 111° |
| 2026-04-24 19:02 | 7.41894 | -9.91372 | 34861 ft | 470 kts | 111° |
| 2026-04-24 19:03 | 7.39607 | -9.85229 | 34862 ft | 468 kts | 108° |
| 2026-04-24 19:03 | 7.37505 | -9.79050 | 34862 ft | 466 kts | 108° |
| 2026-04-24 19:04 | 7.35413 | -9.72916 | 34865 ft | 465 kts | 108° |
| 2026-04-24 19:04 | 7.33289 | -9.66779 | 34862 ft | 463 kts | 108° |
| 2026-04-24 19:05 | 7.31157 | -9.60665 | 34867 ft | 462 kts | 108° |
| 2026-04-24 19:05 | 7.29027 | -9.54563 | 34873 ft | 461 kts | 108° |
| 2026-04-24 19:06 | 7.26900 | -9.48471 | 34869 ft | 461 kts | 108° |
| 2026-04-24 19:06 | 7.24776 | -9.42388 | 34866 ft | 460 kts | 108° |
| 2026-04-24 19:07 | 7.22653 | -9.36312 | 34871 ft | 460 kts | 108° |
| 2026-04-24 19:07 | 7.20887 | -9.31259 | 34875 ft | 460 kts | 108° |
| 2026-04-24 19:08 | 7.18404 | -9.24154 | 34876 ft | 460 kts | 108° |
| 2026-04-24 19:08 | 7.16279 | -9.18079 | 34874 ft | 460 kts | 108° |
| 2026-04-24 19:09 | 7.14154 | -9.12007 | 34873 ft | 460 kts | 108° |
| 2026-04-24 19:09 | 7.12028 | -9.05936 | 34873 ft | 459 kts | 108° |
| 2026-04-24 19:10 | 7.09906 | -8.99875 | 34874 ft | 459 kts | 108° |
| 2026-04-24 19:10 | 7.07785 | -8.93820 | 34872 ft | 458 kts | 108° |
| 2026-04-24 19:11 | 7.05670 | -8.87783 | 34874 ft | 457 kts | 109° |
| 2026-04-24 19:11 | 7.03559 | -8.81760 | 34876 ft | 456 kts | 109° |
| 2026-04-24 19:12 | 7.01437 | -8.75797 | 34874 ft | 455 kts | 109° |
| 2026-04-24 19:12 | 6.99233 | -8.69839 | 34876 ft | 454 kts | 110° |
| 2026-04-24 19:13 | 6.97383 | -8.64854 | 34875 ft | 453 kts | 109° |
| 2026-04-24 19:13 | 6.94832 | -8.57946 | 34879 ft | 453 kts | 109° |
| 2026-04-24 19:14 | 6.92641 | -8.51999 | 34880 ft | 453 kts | 109° |
| 2026-04-24 19:14 | 6.90450 | -8.46048 | 34875 ft | 454 kts | 109° |
| 2026-04-24 19:15 | 6.88253 | -8.40085 | 34878 ft | 454 kts | 109° |
| 2026-04-24 19:15 | 6.86053 | -8.34117 | 34880 ft | 455 kts | 109° |
| 2026-04-24 19:16 | 6.82742 | -8.25139 | 34884 ft | 457 kts | 109° |
| 2026-04-24 19:16 | 6.80542 | -8.19178 | 34883 ft | 458 kts | 109° |
| 2026-04-24 19:17 | 6.78320 | -8.13159 | 34885 ft | 459 kts | 109° |
| 2026-04-24 19:17 | 6.76096 | -8.07135 | 34885 ft | 460 kts | 109° |
| 2026-04-24 19:18 | 6.73868 | -8.01104 | 34886 ft | 460 kts | 109° |
| 2026-04-24 19:18 | 6.71637 | -7.95068 | 34883 ft | 460 kts | 109° |
| 2026-04-24 19:19 | 6.69405 | -7.89027 | 34885 ft | 460 kts | 109° |
| 2026-04-24 19:19 | 6.67175 | -7.82996 | 34884 ft | 460 kts | 109° |
| 2026-04-24 19:20 | 6.64991 | -7.76953 | 34892 ft | 459 kts | 109° |
| 2026-04-24 19:20 | 6.62882 | -7.70907 | 34877 ft | 458 kts | 108° |
| 2026-04-24 19:21 | 6.60775 | -7.64865 | 34879 ft | 457 kts | 109° |
| 2026-04-24 19:21 | 6.58664 | -7.58841 | 34886 ft | 456 kts | 109° |
| 2026-04-24 19:22 | 6.56565 | -7.52866 | 34879 ft | 455 kts | 109° |
| 2026-04-24 19:22 | 6.54456 | -7.46867 | 34880 ft | 455 kts | 109° |
| 2026-04-24 19:23 | 6.52350 | -7.40880 | 34883 ft | 454 kts | 109° |
| 2026-04-24 19:23 | 6.50247 | -7.34902 | 34882 ft | 453 kts | 109° |
| 2026-04-24 19:24 | 6.48147 | -7.28931 | 34878 ft | 453 kts | 109° |
| 2026-04-24 19:24 | 6.46046 | -7.22965 | 34880 ft | 452 kts | 109° |
| 2026-04-24 19:25 | 6.43949 | -7.17009 | 34881 ft | 452 kts | 109° |
| 2026-04-24 19:25 | 6.41848 | -7.11048 | 34878 ft | 452 kts | 109° |
| 2026-04-24 19:26 | 6.39751 | -7.05097 | 34878 ft | 452 kts | 109° |
| 2026-04-24 19:26 | 6.37648 | -6.99133 | 34882 ft | 452 kts | 109° |
| 2026-04-24 19:27 | 6.35544 | -6.93169 | 34880 ft | 453 kts | 109° |
| 2026-04-24 19:27 | 6.33440 | -6.87206 | 34882 ft | 453 kts | 109° |
| 2026-04-24 19:28 | 6.31688 | -6.82246 | 34879 ft | 453 kts | 109° |
| 2026-04-24 19:28 | 6.29238 | -6.75306 | 34883 ft | 453 kts | 109° |
| 2026-04-24 19:29 | 6.26072 | -6.66348 | 34882 ft | 454 kts | 109° |
| 2026-04-24 19:30 | 6.24303 | -6.61344 | 34879 ft | 454 kts | 109° |
| 2026-04-24 19:30 | 6.22190 | -6.55367 | 34879 ft | 454 kts | 109° |
| 2026-04-24 19:31 | 6.20074 | -6.49384 | 34881 ft | 454 kts | 109° |
| 2026-04-24 19:31 | 6.17973 | -6.43437 | 35025 ft | 451 kts | 109° |
| 2026-04-24 19:32 | 6.15859 | -6.37466 | 34912 ft | 455 kts | 109° |
| 2026-04-24 19:32 | 6.13736 | -6.31471 | 34890 ft | 456 kts | 109° |
| 2026-04-24 19:33 | 6.11621 | -6.25506 | 34881 ft | 457 kts | 109° |
| 2026-04-24 19:33 | 6.09488 | -6.19490 | 34879 ft | 457 kts | 109° |
| 2026-04-24 19:34 | 6.07358 | -6.13475 | 34881 ft | 457 kts | 109° |
| 2026-04-24 19:34 | 6.05227 | -6.07457 | 34881 ft | 457 kts | 109° |
| 2026-04-24 19:35 | 6.03096 | -6.01441 | 34881 ft | 457 kts | 109° |
| 2026-04-24 19:35 | 6.00966 | -5.95430 | 34882 ft | 456 kts | 109° |
| 2026-04-24 19:36 | 5.98838 | -5.89427 | 34882 ft | 456 kts | 109° |
| 2026-04-24 19:36 | 5.96713 | -5.83434 | 34880 ft | 456 kts | 109° |
| 2026-04-24 19:37 | 5.94587 | -5.77443 | 34884 ft | 455 kts | 109° |
| 2026-04-24 19:37 | 5.92462 | -5.71454 | 34882 ft | 455 kts | 109° |
| 2026-04-24 19:38 | 5.90338 | -5.65468 | 34884 ft | 455 kts | 109° |
| 2026-04-24 19:38 | 5.88215 | -5.59489 | 34880 ft | 454 kts | 109° |
| 2026-04-24 19:39 | 5.86094 | -5.53514 | 34878 ft | 454 kts | 109° |
| 2026-04-24 19:39 | 5.83973 | -5.47542 | 34876 ft | 454 kts | 109° |
| 2026-04-24 19:40 | 5.81846 | -5.41571 | 34877 ft | 454 kts | 109° |
| 2026-04-24 19:40 | 5.79732 | -5.35642 | 34876 ft | 454 kts | 109° |
| 2026-04-24 19:41 | 5.77605 | -5.29671 | 34871 ft | 454 kts | 109° |
| 2026-04-24 19:41 | 5.75475 | -5.23689 | 34872 ft | 455 kts | 109° |
| 2026-04-24 19:42 | 5.73347 | -5.17713 | 34869 ft | 455 kts | 109° |
| 2026-04-24 19:42 | 5.71210 | -5.11715 | 34869 ft | 456 kts | 109° |
| 2026-04-24 19:43 | 5.69072 | -5.05716 | 34866 ft | 457 kts | 109° |
| 2026-04-24 19:43 | 5.66930 | -4.99710 | 34862 ft | 457 kts | 109° |
| 2026-04-24 19:44 | 5.64785 | -4.93696 | 34863 ft | 458 kts | 109° |
| 2026-04-24 19:44 | 5.62638 | -4.87679 | 34865 ft | 458 kts | 109° |
| 2026-04-24 19:45 | 5.60485 | -4.81647 | 34862 ft | 459 kts | 109° |
| 2026-04-24 19:45 | 5.58332 | -4.75617 | 34865 ft | 459 kts | 109° |
| 2026-04-24 19:46 | 5.56175 | -4.69578 | 34865 ft | 459 kts | 109° |
| 2026-04-24 19:46 | 5.54018 | -4.63543 | 34867 ft | 460 kts | 109° |
| 2026-04-24 19:47 | 5.51874 | -4.57545 | 34866 ft | 460 kts | 109° |
| 2026-04-24 19:47 | 5.49715 | -4.51506 | 34865 ft | 459 kts | 109° |
| 2026-04-24 19:48 | 5.47558 | -4.45475 | 34865 ft | 459 kts | 109° |
| 2026-04-24 19:48 | 5.44315 | -4.36439 | 34865 ft | 458 kts | 109° |
| 2026-04-24 19:49 | 5.40012 | -4.24422 | 34865 ft | 457 kts | 109° |
| 2026-04-24 19:50 | 5.35722 | -4.12441 | 34862 ft | 456 kts | 109° |
| 2026-04-24 19:51 | 5.32511 | -4.03469 | 34859 ft | 455 kts | 109° |
| 2026-04-24 19:52 | 5.29347 | -3.94505 | 34849 ft | 454 kts | 104° |
| 2026-04-24 19:52 | 5.28542 | -3.88257 | 34848 ft | 452 kts | 87° |
| 2026-04-24 19:53 | 5.29090 | -3.81976 | 34859 ft | 452 kts | 84° |
| 2026-04-24 19:54 | 5.30057 | -3.72552 | 34862 ft | 453 kts | 84° |
| 2026-04-24 19:54 | 5.30664 | -3.66254 | 34868 ft | 454 kts | 84° |
| 2026-04-24 19:55 | 5.31155 | -3.61007 | 34873 ft | 455 kts | 84° |
| 2026-04-24 19:55 | 5.31842 | -3.53620 | 34879 ft | 455 kts | 84° |
| 2026-04-24 19:56 | 5.32427 | -3.47330 | 34879 ft | 456 kts | 84° |
| 2026-04-24 19:56 | 5.33017 | -3.40989 | 34881 ft | 456 kts | 84° |
| 2026-04-24 19:56 | 5.33313 | -3.37808 | 34538 ft | 463 kts | 84° |
| 2026-04-24 19:57 | 5.33612 | -3.34593 | 34148 ft | 460 kts | 84° |
| 2026-04-24 19:57 | 5.33908 | -3.31406 | 33631 ft | 457 kts | 84° |
| 2026-04-24 19:57 | 5.34202 | -3.28244 | 33161 ft | 453 kts | 84° |
| 2026-04-24 19:57 | 5.34493 | -3.25110 | 32688 ft | 450 kts | 84° |
| 2026-04-24 19:58 | 5.34782 | -3.21996 | 32233 ft | 446 kts | 84° |
| 2026-04-24 19:58 | 5.35068 | -3.18911 | 31786 ft | 443 kts | 84° |
| 2026-04-24 19:58 | 5.35352 | -3.15846 | 31343 ft | 440 kts | 84° |
| 2026-04-24 19:58 | 5.35635 | -3.12800 | 30904 ft | 437 kts | 84° |
| 2026-04-24 19:59 | 5.35915 | -3.09770 | 30445 ft | 435 kts | 84° |
| 2026-04-24 19:59 | 5.36194 | -3.06754 | 30004 ft | 433 kts | 84° |
| 2026-04-24 19:59 | 5.36472 | -3.03755 | 29501 ft | 430 kts | 84° |
| 2026-04-24 19:59 | 5.36747 | -3.00778 | 29032 ft | 427 kts | 84° |
| 2026-04-24 20:00 | 5.37020 | -2.97828 | 28558 ft | 423 kts | 84° |
| 2026-04-24 20:00 | 5.37291 | -2.94900 | 28107 ft | 420 kts | 84° |
| 2026-04-24 20:00 | 5.37560 | -2.91997 | 27664 ft | 416 kts | 84° |
| 2026-04-24 20:00 | 5.37827 | -2.89121 | 27228 ft | 413 kts | 84° |
| 2026-04-24 20:01 | 5.38092 | -2.86260 | 26787 ft | 410 kts | 84° |
| 2026-04-24 20:01 | 5.38354 | -2.83424 | 26349 ft | 407 kts | 84° |
| 2026-04-24 20:01 | 5.38615 | -2.80605 | 25926 ft | 405 kts | 84° |
| 2026-04-24 20:01 | 5.38873 | -2.77799 | 25471 ft | 403 kts | 84° |
| 2026-04-24 20:02 | 5.39042 | -2.75950 | 25185 ft | 401 kts | 85° |
| 2026-04-24 20:02 | 5.39381 | -2.72262 | 24611 ft | 399 kts | 85° |
| 2026-04-24 20:02 | 5.39633 | -2.69495 | 24175 ft | 398 kts | 85° |
| 2026-04-24 20:02 | 5.39886 | -2.66737 | 23741 ft | 396 kts | 85° |
| 2026-04-24 20:03 | 5.40137 | -2.63997 | 23274 ft | 395 kts | 85° |
| 2026-04-24 20:03 | 5.40390 | -2.61252 | 22785 ft | 393 kts | 85° |
| 2026-04-24 20:03 | 5.40640 | -2.58532 | 22349 ft | 390 kts | 85° |
| 2026-04-24 20:03 | 5.40889 | -2.55836 | 21917 ft | 386 kts | 85° |
| 2026-04-24 20:04 | 5.41135 | -2.53162 | 21489 ft | 383 kts | 84° |
| 2026-04-24 20:04 | 5.41380 | -2.50508 | 21070 ft | 381 kts | 84° |
| 2026-04-24 20:04 | 5.41623 | -2.47873 | 20654 ft | 378 kts | 84° |
| 2026-04-24 20:04 | 5.41864 | -2.45252 | 20237 ft | 376 kts | 84° |
| 2026-04-24 20:05 | 5.42104 | -2.42648 | 19809 ft | 374 kts | 84° |
| 2026-04-24 20:05 | 5.42343 | -2.40057 | 19392 ft | 372 kts | 84° |
| 2026-04-24 20:05 | 5.42580 | -2.37475 | 18970 ft | 371 kts | 84° |
| 2026-04-24 20:05 | 5.42817 | -2.34901 | 18549 ft | 370 kts | 84° |
| 2026-04-24 20:06 | 5.43052 | -2.32342 | 18122 ft | 365 kts | 84° |
| 2026-04-24 20:06 | 5.43282 | -2.29842 | 17666 ft | 355 kts | 84° |
| 2026-04-24 20:06 | 5.43505 | -2.27408 | 17264 ft | 348 kts | 84° |
| 2026-04-24 20:06 | 5.43727 | -2.24993 | 16878 ft | 346 kts | 84° |
| 2026-04-24 20:07 | 5.43873 | -2.23405 | 16616 ft | 345 kts | 84° |
| 2026-04-24 20:07 | 5.44166 | -2.20212 | 16099 ft | 342 kts | 84° |
| 2026-04-24 20:07 | 5.44383 | -2.17839 | 15717 ft | 341 kts | 84° |
| 2026-04-24 20:07 | 5.44597 | -2.15507 | 15336 ft | 339 kts | 84° |
| 2026-04-24 20:08 | 5.44813 | -2.13156 | 14943 ft | 338 kts | 84° |
| 2026-04-24 20:08 | 5.45027 | -2.10812 | 14557 ft | 337 kts | 84° |
| 2026-04-24 20:08 | 5.45242 | -2.08470 | 14161 ft | 336 kts | 84° |
| 2026-04-24 20:08 | 5.45455 | -2.06140 | 13776 ft | 335 kts | 84° |
| 2026-04-24 20:09 | 5.45668 | -2.03813 | 13356 ft | 334 kts | 84° |
| 2026-04-24 20:09 | 5.45880 | -2.01500 | 12954 ft | 332 kts | 84° |
| 2026-04-24 20:09 | 5.46091 | -1.99201 | 12563 ft | 330 kts | 84° |
| 2026-04-24 20:09 | 5.46299 | -1.96919 | 12186 ft | 327 kts | 84° |
| 2026-04-24 20:10 | 5.46507 | -1.94653 | 11816 ft | 325 kts | 84° |
| 2026-04-24 20:10 | 5.46714 | -1.92403 | 11360 ft | 325 kts | 84° |
| 2026-04-24 20:10 | 5.46922 | -1.90139 | 10928 ft | 325 kts | 85° |
| 2026-04-24 20:10 | 5.47128 | -1.87886 | 10540 ft | 323 kts | 85° |
| 2026-04-24 20:11 | 5.47333 | -1.85653 | 10322 ft | 316 kts | 85° |
| 2026-04-24 20:11 | 5.47531 | -1.83487 | 10165 ft | 307 kts | 85° |
| 2026-04-24 20:11 | 5.47722 | -1.81382 | 10031 ft | 298 kts | 85° |
| 2026-04-24 20:11 | 5.47908 | -1.79337 | 9909 ft | 289 kts | 85° |
| 2026-04-24 20:12 | 5.48086 | -1.77363 | 9848 ft | 278 kts | 85° |
| 2026-04-24 20:12 | 5.48246 | -1.75439 | 9456 ft | 280 kts | 90° |
| 2026-04-24 20:12 | 5.48086 | -1.74158 | 9238 ft | 280 kts | 106° |
| 2026-04-24 20:12 | 5.46699 | -1.71969 | 8788 ft | 283 kts | 139° |
| 2026-04-24 20:13 | 5.44975 | -1.71025 | 8466 ft | 285 kts | 163° |
| 2026-04-24 20:13 | 5.43009 | -1.70795 | 8185 ft | 285 kts | 179° |
| 2026-04-24 20:13 | 5.41024 | -1.70841 | 7878 ft | 285 kts | 181° |
| 2026-04-24 20:13 | 5.39049 | -1.70925 | 7590 ft | 284 kts | 181° |
| 2026-04-24 20:14 | 5.37078 | -1.71008 | 7289 ft | 283 kts | 181° |
| 2026-04-24 20:14 | 5.35117 | -1.71085 | 6990 ft | 279 kts | 182° |
| 2026-04-24 20:14 | 5.33201 | -1.71155 | 6698 ft | 272 kts | 182° |
| 2026-04-24 20:14 | 5.31341 | -1.71218 | 6416 ft | 264 kts | 182° |
| 2026-04-24 20:15 | 5.29530 | -1.71276 | 6126 ft | 257 kts | 182° |
| 2026-04-24 20:15 | 5.27770 | -1.71330 | 5843 ft | 250 kts | 182° |
| 2026-04-24 20:15 | 5.26053 | -1.71382 | 5591 ft | 245 kts | 183° |
| 2026-04-24 20:15 | 5.24336 | -1.71433 | 5348 ft | 250 kts | 183° |
| 2026-04-24 20:16 | 5.22573 | -1.71486 | 5096 ft | 258 kts | 183° |
| 2026-04-24 20:16 | 5.20768 | -1.71540 | 4814 ft | 259 kts | 183° |
| 2026-04-24 20:16 | 5.18988 | -1.71592 | 4536 ft | 259 kts | 184° |
| 2026-04-24 20:16 | 5.17170 | -1.71647 | 4253 ft | 257 kts | 184° |
| 2026-04-24 20:17 | 5.15407 | -1.71699 | 3977 ft | 256 kts | 184° |
| 2026-04-24 20:17 | 5.11934 | -1.71600 | 3676 ft | 247 kts | 165° |
| 2026-04-24 20:17 | 5.10355 | -1.71006 | 3610 ft | 238 kts | 163° |
| 2026-04-24 20:18 | 5.09318 | -1.70612 | 3527 ft | 234 kts | 163° |
| 2026-04-24 20:18 | 5.07346 | -1.69871 | 3381 ft | 224 kts | 164° |
| 2026-04-24 20:18 | 5.05890 | -1.69327 | 3151 ft | 222 kts | 165° |
| 2026-04-24 20:18 | 5.04411 | -1.69165 | 2950 ft | 209 kts | 199° |
| 2026-04-24 20:19 | 5.03101 | -1.69702 | 2859 ft | 207 kts | 210° |
| 2026-04-24 20:19 | 5.01837 | -1.70423 | 2621 ft | 209 kts | 212° |
| 2026-04-24 20:19 | 5.00993 | -1.70918 | 2472 ft | 206 kts | 212° |
| 2026-04-24 20:19 | 4.99767 | -1.71637 | 2227 ft | 201 kts | 212° |
| 2026-04-24 20:20 | 4.98578 | -1.72330 | 1945 ft | 195 kts | 212° |
| 2026-04-24 20:20 | 4.97455 | -1.72975 | 1836 ft | 180 kts | 212° |
| 2026-04-24 20:20 | 4.96405 | -1.73579 | 1792 ft | 166 kts | 212° |
| 2026-04-24 20:20 | 4.95380 | -1.74168 | 1287 ft | 176 kts | 211° |
| 2026-04-24 20:21 | 4.94350 | -1.74758 | 1018 ft | 167 kts | 212° |
| 2026-04-24 20:21 | 4.93374 | -1.75315 | 807 ft | 158 kts | 214° |
| 2026-04-24 20:21 | 4.92429 | -1.75858 | 654 ft | 156 kts | 211° |
| 2026-04-24 20:21 | 4.91518 | -1.76394 | 571 ft | 151 kts | 216° |
| 2026-04-24 20:22 | 4.90716 | -1.76945 | 733 ft | 131 kts | 217° |
| 2026-04-24 20:22 | 4.89992 | -1.77517 | 570 ft | 126 kts | 229° |
| 2026-04-24 20:22 | 4.89680 | -1.78272 | 620 ft | 122 kts | 270° |
| 2026-04-24 20:22 | 4.89997 | -1.79050 | 672 ft | 125 kts | 310° |
| 2026-04-24 20:23 | 4.90690 | -1.79615 | 718 ft | 134 kts | 323° |
| 2026-04-24 20:23 | 4.91526 | -1.80065 | 868 ft | 136 kts | 335° |
| 2026-04-24 20:23 | 4.92398 | -1.80195 | 1189 ft | 126 kts | 2° |
| 2026-04-24 20:23 | 4.93317 | -1.80090 | 1247 ft | 137 kts | 9° |
| 2026-04-24 20:24 | 4.94208 | -1.79816 | 1789 ft | 131 kts | 15° |
| 2026-04-24 20:24 | 4.95084 | -1.79460 | 1847 ft | 145 kts | 26° |
| 2026-04-24 20:24 | 4.95897 | -1.78866 | 1962 ft | 145 kts | 41° |
| 2026-04-24 20:24 | 4.96518 | -1.78095 | 2047 ft | 139 kts | 68° |
| 2026-04-24 20:25 | 4.96715 | -1.77148 | 2001 ft | 142 kts | 92° |
| 2026-04-24 20:25 | 4.96577 | -1.76218 | 2108 ft | 135 kts | 124° |
| 2026-04-24 20:25 | 4.95874 | -1.75563 | 2356 ft | 141 kts | 161° |
| 2026-04-24 20:25 | 4.94970 | -1.75196 | 2380 ft | 139 kts | 169° |
| 2026-04-24 20:26 | 4.94015 | -1.75079 | 2205 ft | 138 kts | 188° |
| 2026-04-24 20:26 | 4.93128 | -1.75335 | 1858 ft | 131 kts | 208° |
| 2026-04-24 20:26 | 4.92329 | -1.75820 | 1306 ft | 137 kts | 217° |
| 2026-04-24 20:26 | 4.91524 | -1.76360 | 799 ft | 139 kts | 214° |
| 2026-04-24 20:27 | 4.90681 | -1.76862 | 317 ft | 140 kts | 212° |
| 2026-04-24 20:27 | 4.89865 | -1.77324 | 33 ft | 126 kts | 211° |
| 2026-04-24 20:27 | 4.89319 | -1.77639 | 24 ft | 40 kts | 208° |
| 2026-04-24 20:27 | 4.89131 | -1.77746 | 22 ft | 30 kts | 208° |
| 2026-04-24 20:28 | 4.88955 | -1.77827 | 22 ft | 21 kts | 196° |
| 2026-04-24 20:28 | 4.88928 | -1.77869 | 23 ft | 1 kts | 308° |
| 2026-04-24 20:28 | 4.88936 | -1.77865 | 22 ft | 4 kts | 30° |
| 2026-04-24 20:28 | 4.88988 | -1.77830 | 22 ft | 18 kts | 35° |
| 2026-04-24 20:29 | 4.89065 | -1.77783 | 23 ft | 20 kts | 30° |
| 2026-04-24 20:29 | 4.89226 | -1.77685 | 22 ft | 20 kts | 27° |
| 2026-04-24 20:29 | 4.89347 | -1.77621 | 24 ft | 19 kts | 29° |
| 2026-04-24 20:29 | 4.89462 | -1.77557 | 23 ft | 19 kts | 28° |
| 2026-04-24 20:30 | 4.89518 | -1.77521 | 27 ft | 7 kts | 31° |
| 2026-04-24 20:30 | 4.89560 | -1.77493 | 23 ft | 7 kts | 45° |
| 2026-04-24 20:30 | 4.89595 | -1.77458 | 13 ft | 7 kts | 54° |
| 2026-04-24 20:30 | 4.89585 | -1.77413 | 28 ft | 7 kts | 122° |
| 2026-04-24 20:31 | 4.89579 | -1.77385 | 27 ft | 2 kts | 64° |
| 2026-04-24 20:31 | 4.89587 | -1.77375 | 24 ft | 2 kts | 38° |
| 2026-04-24 20:31 | 4.89601 | -1.77367 | 24 ft | 3 kts | 33° |
| 2026-04-24 20:31 | 4.89612 | -1.77352 | 24 ft | 3 kts | 79° |
| 2026-04-24 20:32 | 4.89605 | -1.77332 | 24 ft | 3 kts | 110° |
| 2026-04-24 20:32 | 4.89603 | -1.77311 | 24 ft | 3 kts | 83° |
| 2026-04-24 20:32 | 4.89603 | -1.77308 | 24 ft | 0 kts | 80° |
| 2026-04-24 20:35 | 4.89605 | -1.77299 | 24 ft | 8 kts | 79° |
| 2026-04-24 20:35 | 4.89619 | -1.77300 | 28 ft | 5 kts | 317° |
| 2026-04-24 20:35 | 4.89645 | -1.77335 | 26 ft | 9 kts | 275° |
| 2026-04-24 20:35 | 4.89595 | -1.77368 | 24 ft | 12 kts | 188° |
| 2026-04-24 20:36 | 4.89557 | -1.77346 | 24 ft | 7 kts | 116° |
| 2026-04-24 20:36 | 4.89557 | -1.77337 | 26 ft | 7 kts | 66° |
| 2026-04-24 20:36 | 4.89563 | -1.77329 | 25 ft | 0 kts | 51° |